sensor_id;sensor_type;location;lat;lon;timestamp;pressure;altitude;pressure_sealevel;temperature;humidity
36798;BME280;22748;8.426;99.512;2022-08-01T00:01:48;100417.09;;;29.58;66.84
36798;BME280;22748;8.426;99.512;2022-08-01T00:04:20;100420.59;;;29.58;66.60
36798;BME280;22748;8.426;99.512;2022-08-01T00:06:52;100424.31;;;29.57;66.46
36798;BME280;22748;8.426;99.512;2022-08-01T00:09:22;100421.63;;;29.57;66.65
36798;BME280;22748;8.426;99.512;2022-08-01T00:11:53;100423.28;;;29.58;66.97
36798;BME280;22748;8.426;99.512;2022-08-01T00:14:23;100423.72;;;29.55;66.51
36798;BME280;22748;8.426;99.512;2022-08-01T00:16:53;100425.38;;;29.56;66.70
36798;BME280;22748;8.426;99.512;2022-08-01T00:19:25;100427.44;;;29.54;66.57
36798;BME280;22748;8.426;99.512;2022-08-01T00:21:55;100420.44;;;29.53;66.75
36798;BME280;22748;8.426;99.512;2022-08-01T00:24:25;100437.19;;;29.55;66.74
36798;BME280;22748;8.426;99.512;2022-08-01T00:26:57;100437.59;;;29.52;67.18
36798;BME280;22748;8.426;99.512;2022-08-01T00:29:28;100445.88;;;29.50;66.94
36798;BME280;22748;8.426;99.512;2022-08-01T00:31:57;100438.06;;;29.49;66.76
36798;BME280;22748;8.426;99.512;2022-08-01T00:34:29;100445.69;;;29.52;66.74
36798;BME280;22748;8.426;99.512;2022-08-01T00:37:00;100455.19;;;29.54;67.34
36798;BME280;22748;8.426;99.512;2022-08-01T00:39:30;100457.66;;;29.56;66.86
36798;BME280;22748;8.426;99.512;2022-08-01T00:42:05;100466.34;;;29.58;67.31
36798;BME280;22748;8.426;99.512;2022-08-01T00:44:37;100464.25;;;29.60;67.13
36798;BME280;22748;8.426;99.512;2022-08-01T00:47:07;100472.53;;;29.59;67.21
36798;BME280;22748;8.426;99.512;2022-08-01T00:49:40;100472.94;;;29.62;67.34
36798;BME280;22748;8.426;99.512;2022-08-01T00:52:10;100474.56;;;29.63;67.40
36798;BME280;22748;8.426;99.512;2022-08-01T00:54:43;100475.41;;;29.64;66.99
36798;BME280;22748;8.426;99.512;2022-08-01T00:57:13;100485.13;;;29.65;66.99
36798;BME280;22748;8.426;99.512;2022-08-01T00:59:43;100481.00;;;29.62;66.89
36798;BME280;22748;8.426;99.512;2022-08-01T01:02:14;100488.44;;;29.67;67.12
36798;BME280;22748;8.426;99.512;2022-08-01T01:04:48;100490.06;;;29.68;67.24
36798;BME280;22748;8.426;99.512;2022-08-01T01:07:25;100489.25;;;29.67;67.37
36798;BME280;22748;8.426;99.512;2022-08-01T01:10:02;100499.41;;;29.65;67.75
36798;BME280;22748;8.426;99.512;2022-08-01T01:12:44;100492.38;;;29.64;67.62
36798;BME280;22748;8.426;99.512;2022-08-01T01:15:22;100496.50;;;29.67;68.17
36798;BME280;22748;8.426;99.512;2022-08-01T01:18:03;100503.16;;;29.64;67.64
36798;BME280;22748;8.426;99.512;2022-08-01T01:20:41;100501.47;;;29.63;67.99
36798;BME280;22748;8.426;99.512;2022-08-01T01:23:34;100498.78;;;29.63;68.20
36798;BME280;22748;8.426;99.512;2022-08-01T01:26:31;100510.63;;;29.62;67.69
36798;BME280;22748;8.426;99.512;2022-08-01T01:29:14;100514.31;;;29.61;68.09
36798;BME280;22748;8.426;99.512;2022-08-01T01:31:51;100513.72;;;29.59;68.24
36798;BME280;22748;8.426;99.512;2022-08-01T01:34:24;100513.09;;;29.57;67.92
36798;BME280;22748;8.426;99.512;2022-08-01T01:36:59;100516.03;;;29.56;67.64
36798;BME280;22748;8.426;99.512;2022-08-01T01:39:31;100513.34;;;29.56;67.86
36798;BME280;22748;8.426;99.512;2022-08-01T01:42:00;100517.72;;;29.50;68.04
36798;BME280;22748;8.426;99.512;2022-08-01T01:44:33;100517.72;;;29.50;67.68
36798;BME280;22748;8.426;99.512;2022-08-01T01:47:05;100508.69;;;29.38;67.97
36798;BME280;22748;8.426;99.512;2022-08-01T01:49:37;100508.56;;;29.19;68.18
36798;BME280;22748;8.426;99.512;2022-08-01T01:52:10;100503.19;;;29.19;68.85
36798;BME280;22748;8.426;99.512;2022-08-01T01:54:48;100510.00;;;29.22;68.77
36798;BME280;22748;8.426;99.512;2022-08-01T01:57:19;100507.09;;;29.23;68.85
36798;BME280;22748;8.426;99.512;2022-08-01T01:59:54;100509.78;;;29.23;68.55
36798;BME280;22748;8.426;99.512;2022-08-01T02:02:25;100526.09;;;29.28;69.10
36798;BME280;22748;8.426;99.512;2022-08-01T02:04:59;100522.75;;;29.33;68.82
36798;BME280;22748;8.426;99.512;2022-08-01T02:07:30;100532.50;;;29.34;69.17
36798;BME280;22748;8.426;99.512;2022-08-01T02:10:03;100532.28;;;29.36;68.78
36798;BME280;22748;8.426;99.512;2022-08-01T02:12:37;100548.22;;;29.30;69.01
36798;BME280;22748;8.426;99.512;2022-08-01T02:15:12;100551.56;;;29.26;69.11
36798;BME280;22748;8.426;99.512;2022-08-01T02:17:46;100557.97;;;29.31;68.83
36798;BME280;22748;8.426;99.512;2022-08-01T02:20:17;100569.97;;;29.36;68.43
36798;BME280;22748;8.426;99.512;2022-08-01T02:22:50;100576.97;;;29.37;68.46
36798;BME280;22748;8.426;99.512;2022-08-01T02:25:25;100580.28;;;29.39;68.51
36798;BME280;22748;8.426;99.512;2022-08-01T02:28:03;100579.03;;;29.41;68.69
36798;BME280;22748;8.426;99.512;2022-08-01T02:30:37;100599.31;;;29.37;68.68
36798;BME280;22748;8.426;99.512;2022-08-01T02:33:14;100609.88;;;29.39;68.78
36798;BME280;22748;8.426;99.512;2022-08-01T02:35:50;100604.06;;;29.42;68.39
36798;BME280;22748;8.426;99.512;2022-08-01T02:38:24;100606.13;;;29.40;68.37
36798;BME280;22748;8.426;99.512;2022-08-01T02:40:57;100612.34;;;29.40;68.48
36798;BME280;22748;8.426;99.512;2022-08-01T02:43:32;100611.09;;;29.43;68.53
36798;BME280;22748;8.426;99.512;2022-08-01T02:46:11;100616.03;;;29.46;68.25
36798;BME280;22748;8.426;99.512;2022-08-01T02:48:43;100607.56;;;29.49;68.05
36798;BME280;22748;8.426;99.512;2022-08-01T02:51:14;100604.88;;;29.49;68.06
36798;BME280;22748;8.426;99.512;2022-08-01T02:53:50;100597.66;;;29.43;67.94
36798;BME280;22748;8.426;99.512;2022-08-01T02:56:23;100612.13;;;29.42;67.83
36798;BME280;22748;8.426;99.512;2022-08-01T02:59:04;100598.25;;;29.45;67.83
36798;BME280;22748;8.426;99.512;2022-08-01T03:01:36;100607.75;;;29.47;67.76
36798;BME280;22748;8.426;99.512;2022-08-01T03:04:07;100610.00;;;29.50;67.84
36798;BME280;22748;8.426;99.512;2022-08-01T03:06:38;100605.84;;;29.54;68.69
36798;BME280;22748;8.426;99.512;2022-08-01T03:09:09;100612.09;;;29.55;69.03
36798;BME280;22748;8.426;99.512;2022-08-01T03:11:43;100606.47;;;29.57;69.26
36798;BME280;22748;8.426;99.512;2022-08-01T03:14:16;100605.84;;;29.54;69.17
36798;BME280;22748;8.426;99.512;2022-08-01T03:16:50;100610.41;;;29.54;69.19
36798;BME280;22748;8.426;99.512;2022-08-01T03:19:22;100612.09;;;29.55;69.69
36798;BME280;22748;8.426;99.512;2022-08-01T03:21:52;100604.22;;;29.53;69.75
36798;BME280;22748;8.426;99.512;2022-08-01T03:24:24;100608.78;;;29.53;69.97
36798;BME280;22748;8.426;99.512;2022-08-01T03:26:57;100610.88;;;29.51;69.91
36798;BME280;22748;8.426;99.512;2022-08-01T03:29:38;100610.88;;;29.51;70.27
36798;BME280;22748;8.426;99.512;2022-08-01T03:32:10;100596.78;;;29.49;70.64
36798;BME280;22748;8.426;99.512;2022-08-01T03:34:47;100597.66;;;29.43;70.88
36798;BME280;22748;8.426;99.512;2022-08-01T03:37:23;100600.34;;;29.43;70.84
36798;BME280;22748;8.426;99.512;2022-08-01T03:39:58;100601.97;;;29.44;71.03
36798;BME280;22748;8.426;99.512;2022-08-01T03:42:33;100597.84;;;29.41;71.15
36798;BME280;22748;8.426;99.512;2022-08-01T03:45:08;100589.78;;;29.41;71.11
36798;BME280;22748;8.426;99.512;2022-08-01T03:47:43;100581.50;;;29.43;71.18
36798;BME280;22748;8.426;99.512;2022-08-01T03:50:14;100583.13;;;29.44;71.79
36798;BME280;22748;8.426;99.512;2022-08-01T03:52:47;100584.00;;;29.44;71.82
36798;BME280;22748;8.426;99.512;2022-08-01T03:55:21;100582.72;;;29.47;71.75
36798;BME280;22748;8.426;99.512;2022-08-01T03:57:52;100583.56;;;29.47;71.72
36798;BME280;22748;8.426;99.512;2022-08-01T04:00:22;100581.06;;;29.46;71.40
36798;BME280;22748;8.426;99.512;2022-08-01T04:02:54;100590.59;;;29.42;71.34
36798;BME280;22748;8.426;99.512;2022-08-01T04:05:25;100583.75;;;29.46;72.09
36798;BME280;22748;8.426;99.512;2022-08-01T04:07:55;100592.22;;;29.49;72.35
36798;BME280;22748;8.426;99.512;2022-08-01T04:10:25;100589.13;;;29.46;72.18
36798;BME280;22748;8.426;99.512;2022-08-01T04:12:55;100587.66;;;29.50;72.02
36798;BME280;22748;8.426;99.512;2022-08-01T04:15:26;100581.47;;;29.49;72.06
36798;BME280;22748;8.426;99.512;2022-08-01T04:17:57;100579.44;;;29.45;71.67
36798;BME280;22748;8.426;99.512;2022-08-01T04:20:28;100577.75;;;29.44;71.40
36798;BME280;22748;8.426;99.512;2022-08-01T04:23:00;100581.91;;;29.40;71.65
36798;BME280;22748;8.426;99.512;2022-08-01T04:25:35;100575.72;;;29.39;71.41
36798;BME280;22748;8.426;99.512;2022-08-01T04:28:11;100581.91;;;29.40;71.90
36798;BME280;22748;8.426;99.512;2022-08-01T04:30:44;100581.50;;;29.43;71.93
36798;BME280;22748;8.426;99.512;2022-08-01T04:33:20;100579.44;;;29.45;72.33
36798;BME280;22748;8.426;99.512;2022-08-01T04:35:51;100581.06;;;29.46;71.92
36798;BME280;22748;8.426;99.512;2022-08-01T04:38:25;100574.88;;;29.45;72.24
36798;BME280;22748;8.426;99.512;2022-08-01T04:40:57;100578.38;;;29.46;71.73
36798;BME280;22748;8.426;99.512;2022-08-01T04:43:29;100573.44;;;29.43;72.05
36798;BME280;22748;8.426;99.512;2022-08-01T04:46:01;100576.13;;;29.43;71.75
36798;BME280;22748;8.426;99.512;2022-08-01T04:48:38;100579.44;;;29.45;71.92
36798;BME280;22748;8.426;99.512;2022-08-01T04:51:14;100573.44;;;29.43;71.85
36798;BME280;22748;8.426;99.512;2022-08-01T04:53:45;100564.91;;;29.46;71.48
36798;BME280;22748;8.426;99.512;2022-08-01T04:56:16;100562.63;;;29.49;71.50
36798;BME280;22748;8.426;99.512;2022-08-01T04:58:47;100559.13;;;29.49;71.43
36798;BME280;22748;8.426;99.512;2022-08-01T05:01:39;100551.88;;;29.49;71.01
36798;BME280;22748;8.426;99.512;2022-08-01T05:04:10;100556.59;;;29.54;71.60
36798;BME280;22748;8.426;99.512;2022-08-01T05:06:42;100556.16;;;29.57;71.58
36798;BME280;22748;8.426;99.512;2022-08-01T05:09:12;100543.94;;;29.61;71.20
36798;BME280;22748;8.426;99.512;2022-08-01T05:11:42;100546.00;;;29.59;70.94
36798;BME280;22748;8.426;99.512;2022-08-01T05:14:11;100550.31;;;29.67;71.28
36798;BME280;22748;8.426;99.512;2022-08-01T05:16:42;100548.91;;;29.64;71.44
36798;BME280;22748;8.426;99.512;2022-08-01T05:19:15;100537.13;;;29.59;71.00
36798;BME280;22748;8.426;99.512;2022-08-01T05:21:46;100527.78;;;29.61;71.41
36798;BME280;22748;8.426;99.512;2022-08-01T05:24:18;100531.09;;;29.63;71.25
36798;BME280;22748;8.426;99.512;2022-08-01T05:26:51;100531.28;;;29.68;70.91
36798;BME280;22748;8.426;99.512;2022-08-01T05:29:21;100518.84;;;29.74;71.30
36798;BME280;22748;8.426;99.512;2022-08-01T05:31:52;100533.72;;;29.77;71.65
36798;BME280;22748;8.426;99.512;2022-08-01T05:34:25;100526.25;;;29.79;70.81
36798;BME280;22748;8.426;99.512;2022-08-01T05:36:55;100523.56;;;29.79;70.46
36798;BME280;22748;8.426;99.512;2022-08-01T05:39:29;100522.75;;;29.78;70.01
36798;BME280;22748;8.426;99.512;2022-08-01T05:42:01;100522.53;;;29.80;70.24
36798;BME280;22748;8.426;99.512;2022-08-01T05:44:33;100522.09;;;29.83;69.75
36798;BME280;22748;8.426;99.512;2022-08-01T05:47:02;100510.91;;;29.86;69.71
36798;BME280;22748;8.426;99.512;2022-08-01T05:49:34;100513.97;;;29.89;70.04
36798;BME280;22748;8.426;99.512;2022-08-01T05:52:06;100512.13;;;29.90;69.83
36798;BME280;22748;8.426;99.512;2022-08-01T05:54:37;100508.38;;;29.91;69.71
36798;BME280;22748;8.426;99.512;2022-08-01T05:57:08;100500.28;;;29.91;69.64
36798;BME280;22748;8.426;99.512;2022-08-01T05:59:40;100499.47;;;29.90;69.06
36798;BME280;22748;8.426;99.512;2022-08-01T06:02:11;100501.34;;;29.90;69.13
36798;BME280;22748;8.426;99.512;2022-08-01T06:04:43;100494.09;;;29.90;69.62
36798;BME280;22748;8.426;99.512;2022-08-01T06:07:13;100481.72;;;29.83;69.63
36798;BME280;22748;8.426;99.512;2022-08-01T06:09:43;100482.75;;;29.82;69.29
36798;BME280;22748;8.426;99.512;2022-08-01T06:12:14;100477.81;;;29.79;69.35
36798;BME280;22748;8.426;99.512;2022-08-01T06:14:44;100476.16;;;29.78;70.14
36798;BME280;22748;8.426;99.512;2022-08-01T06:17:15;100476.78;;;29.80;70.09
36798;BME280;22748;8.426;99.512;2022-08-01T06:19:47;100477.38;;;29.82;69.80
36798;BME280;22748;8.426;99.512;2022-08-01T06:22:17;100479.00;;;29.83;69.77
36798;BME280;22748;8.426;99.512;2022-08-01T06:24:48;100474.09;;;29.80;69.63
36798;BME280;22748;8.426;99.512;2022-08-01T06:27:19;100482.75;;;29.82;69.55
36798;BME280;22748;8.426;99.512;2022-08-01T06:29:52;100474.25;;;29.85;69.62
36798;BME280;22748;8.426;99.512;2022-08-01T06:32:24;100483.97;;;29.86;69.50
36798;BME280;22748;8.426;99.512;2022-08-01T06:34:56;100478.59;;;29.86;69.32
36798;BME280;22748;8.426;99.512;2022-08-01T06:37:30;100485.63;;;29.87;69.07
36798;BME280;22748;8.426;99.512;2022-08-01T06:40:02;100481.50;;;29.84;68.59
36798;BME280;22748;8.426;99.512;2022-08-01T06:42:33;100482.75;;;29.82;68.29
36798;BME280;22748;8.426;99.512;2022-08-01T06:45:04;100485.22;;;29.83;68.04
36798;BME280;22748;8.426;99.512;2022-08-01T06:47:35;100472.81;;;29.82;68.17
36798;BME280;22748;8.426;99.512;2022-08-01T06:50:09;100470.94;;;29.83;68.10
36798;BME280;22748;8.426;99.512;2022-08-01T06:52:42;100474.25;;;29.85;68.47
36798;BME280;22748;8.426;99.512;2022-08-01T06:55:14;100477.53;;;29.87;68.12
36798;BME280;22748;8.426;99.512;2022-08-01T06:57:50;100465.13;;;29.86;68.06
36798;BME280;22748;8.426;99.512;2022-08-01T07:00:23;100473.22;;;29.86;68.04
36798;BME280;22748;8.426;99.512;2022-08-01T07:02:56;100476.50;;;29.88;68.57
36798;BME280;22748;8.426;99.512;2022-08-01T07:05:29;100469.03;;;29.90;68.04
36798;BME280;22748;8.426;99.512;2022-08-01T07:07:59;100469.03;;;29.90;68.05
36798;BME280;22748;8.426;99.512;2022-08-01T07:10:30;100465.75;;;29.88;68.08
36798;BME280;22748;8.426;99.512;2022-08-01T07:13:00;100463.66;;;29.90;68.08
36798;BME280;22748;8.426;99.512;2022-08-01T07:15:31;100460.97;;;29.90;67.68
36798;BME280;22748;8.426;99.512;2022-08-01T07:18:00;100456.81;;;29.87;67.77
36798;BME280;22748;8.426;99.512;2022-08-01T07:20:33;100462.00;;;29.89;67.07
36798;BME280;22748;8.426;99.512;2022-08-01T07:23:03;100454.53;;;29.91;66.14
36798;BME280;22748;8.426;99.512;2022-08-01T07:25:34;100443.16;;;29.89;66.22
36798;BME280;22748;8.426;99.512;2022-08-01T07:28:04;100446.66;;;29.89;66.48
36798;BME280;22748;8.426;99.512;2022-08-01T07:30:34;100442.53;;;29.87;66.38
36798;BME280;22748;8.426;99.512;2022-08-01T07:33:04;100434.47;;;29.87;66.29
36798;BME280;22748;8.426;99.512;2022-08-01T07:35:39;100434.25;;;29.88;66.22
36798;BME280;22748;8.426;99.512;2022-08-01T07:38:09;100427.59;;;29.91;66.42
36798;BME280;22748;8.426;99.512;2022-08-01T07:40:41;100422.00;;;29.92;66.89
36798;BME280;22748;8.426;99.512;2022-08-01T07:43:11;100424.69;;;29.92;66.66
36798;BME280;22748;8.426;99.512;2022-08-01T07:45:42;100421.75;;;29.94;66.85
36798;BME280;22748;8.426;99.512;2022-08-01T07:48:13;100417.44;;;29.93;67.06
36798;BME280;22748;8.426;99.512;2022-08-01T07:50:45;100408.53;;;29.92;66.74
36798;BME280;22748;8.426;99.512;2022-08-01T07:53:16;100402.91;;;29.94;67.35
36798;BME280;22748;8.426;99.512;2022-08-01T07:55:48;100401.88;;;29.95;67.50
36798;BME280;22748;8.426;99.512;2022-08-01T07:58:21;100392.75;;;29.96;67.28
36798;BME280;22748;8.426;99.512;2022-08-01T08:00:52;100386.53;;;29.96;67.77
36798;BME280;22748;8.426;99.512;2022-08-01T08:03:23;100387.81;;;29.93;67.73
36798;BME280;22748;8.426;99.512;2022-08-01T08:05:55;100394.03;;;29.93;67.48
36798;BME280;22748;8.426;99.512;2022-08-01T08:08:30;100387.81;;;29.93;68.22
36798;BME280;22748;8.426;99.512;2022-08-01T08:11:03;100382.28;;;29.88;68.36
36798;BME280;22748;8.426;99.512;2022-08-01T08:13:34;100373.38;;;29.87;67.99
36798;BME280;22748;8.426;99.512;2022-08-01T08:16:04;100374.56;;;29.91;67.92
36798;BME280;22748;8.426;99.512;2022-08-01T08:18:35;100361.09;;;29.91;68.41
36798;BME280;22748;8.426;99.512;2022-08-01T08:21:07;100364.63;;;29.92;68.12
36798;BME280;22748;8.426;99.512;2022-08-01T08:23:37;100358.81;;;29.95;68.21
36798;BME280;22748;8.426;99.512;2022-08-01T08:26:20;100358.81;;;29.95;68.37
36798;BME280;22748;8.426;99.512;2022-08-01T08:28:51;100363.81;;;29.91;68.66
36798;BME280;22748;8.426;99.512;2022-08-01T08:31:22;100357.00;;;29.89;68.32
36798;BME280;22748;8.426;99.512;2022-08-01T08:33:52;100345.19;;;29.90;68.26
36798;BME280;22748;8.426;99.512;2022-08-01T08:36:23;100334.66;;;29.88;67.46
36798;BME280;22748;8.426;99.512;2022-08-01T08:38:55;100332.44;;;29.79;67.47
36798;BME280;22748;8.426;99.512;2022-08-01T08:41:26;100325.88;;;29.74;67.86
36798;BME280;22748;8.426;99.512;2022-08-01T08:43:57;100322.94;;;29.76;67.98
36798;BME280;22748;8.426;99.512;2022-08-01T08:46:28;100326.03;;;29.80;68.24
36798;BME280;22748;8.426;99.512;2022-08-01T08:49:03;100330.75;;;29.84;68.31
36798;BME280;22748;8.426;99.512;2022-08-01T08:51:39;100334.84;;;29.87;68.18
36798;BME280;22748;8.426;99.512;2022-08-01T08:54:11;100347.72;;;29.85;68.29
36798;BME280;22748;8.426;99.512;2022-08-01T08:56:42;100336.94;;;29.85;68.23
36798;BME280;22748;8.426;99.512;2022-08-01T08:59:13;100325.38;;;29.84;67.78
36798;BME280;22748;8.426;99.512;2022-08-01T09:01:50;100329.94;;;29.84;68.27
36798;BME280;22748;8.426;99.512;2022-08-01T09:04:21;100333.22;;;29.86;68.04
36798;BME280;22748;8.426;99.512;2022-08-01T09:06:54;100337.34;;;29.88;68.17
36798;BME280;22748;8.426;99.512;2022-08-01T09:09:25;100336.06;;;29.91;68.13
36798;BME280;22748;8.426;99.512;2022-08-01T09:11:57;100333.97;;;29.93;68.03
36798;BME280;22748;8.426;99.512;2022-08-01T09:14:28;100334.56;;;29.95;67.84
36798;BME280;22748;8.426;99.512;2022-08-01T09:17:05;100344.28;;;29.96;67.55
36798;BME280;22748;8.426;99.512;2022-08-01T09:19:39;100331.41;;;29.98;67.33
36798;BME280;22748;8.426;99.512;2022-08-01T09:22:13;100331.88;;;29.95;67.77
36798;BME280;22748;8.426;99.512;2022-08-01T09:24:59;100334.56;;;29.95;67.82
36798;BME280;22748;8.426;99.512;2022-08-01T09:27:31;100328.72;;;29.98;67.24
36798;BME280;22748;8.426;99.512;2022-08-01T09:30:13;100333.50;;;29.96;67.32
36798;BME280;22748;8.426;99.512;2022-08-01T09:32:58;100322.75;;;29.96;67.36
36798;BME280;22748;8.426;99.512;2022-08-01T09:35:30;100317.34;;;29.96;67.56
36798;BME280;22748;8.426;99.512;2022-08-01T09:38:19;100308.94;;;29.92;67.29
36798;BME280;22748;8.426;99.512;2022-08-01T09:40:51;100303.97;;;29.89;67.32
36798;BME280;22748;8.426;99.512;2022-08-01T09:43:23;100300.47;;;29.89;67.31
36798;BME280;22748;8.426;99.512;2022-08-01T09:45:55;100293.81;;;29.91;67.25
36798;BME280;22748;8.426;99.512;2022-08-01T09:48:25;100275.41;;;29.88;67.77
36798;BME280;22748;8.426;99.512;2022-08-01T09:50:57;100267.94;;;29.90;67.68
36798;BME280;22748;8.426;99.512;2022-08-01T09:53:41;100273.53;;;29.89;67.71
36798;BME280;22748;8.426;99.512;2022-08-01T09:56:12;100273.31;;;29.90;68.10
36798;BME280;22748;8.426;99.512;2022-08-01T09:58:53;100285.97;;;29.90;68.14
36798;BME280;22748;8.426;99.512;2022-08-01T10:01:24;100287.81;;;29.89;67.75
36798;BME280;22748;8.426;99.512;2022-08-01T10:04:06;100294.47;;;29.87;67.82
36798;BME280;22748;8.426;99.512;2022-08-01T10:06:40;100293.81;;;29.91;67.91
36798;BME280;22748;8.426;99.512;2022-08-01T10:09:14;100299.78;;;29.93;67.42
36798;BME280;22748;8.426;99.512;2022-08-01T10:11:48;100304.16;;;29.94;67.58
36798;BME280;22748;8.426;99.512;2022-08-01T10:14:20;100304.16;;;29.94;67.69
36798;BME280;22748;8.426;99.512;2022-08-01T10:16:52;100306.59;;;29.96;67.18
36798;BME280;22748;8.426;99.512;2022-08-01T10:19:25;100302.88;;;29.97;67.44
36798;BME280;22748;8.426;99.512;2022-08-01T10:21:57;100301.00;;;29.98;67.44
36798;BME280;22748;8.426;99.512;2022-08-01T10:24:31;100299.13;;;29.98;67.19
36798;BME280;22748;8.426;99.512;2022-08-01T10:27:08;100296.41;;;29.98;67.18
36798;BME280;22748;8.426;99.512;2022-08-01T10:29:47;100297.47;;;29.97;66.84
36798;BME280;22748;8.426;99.512;2022-08-01T10:32:19;100299.13;;;29.98;67.32
36798;BME280;22748;8.426;99.512;2022-08-01T10:34:51;100297.47;;;29.97;66.83
36798;BME280;22748;8.426;99.512;2022-08-01T10:37:23;100294.56;;;29.99;66.81
36798;BME280;22748;8.426;99.512;2022-08-01T10:39:57;100291.03;;;29.98;67.13
36798;BME280;22748;8.426;99.512;2022-08-01T10:42:27;100290.00;;;29.99;66.96
36798;BME280;22748;8.426;99.512;2022-08-01T10:44:59;100290.00;;;29.99;67.04
36798;BME280;22748;8.426;99.512;2022-08-01T10:47:38;100284.63;;;29.99;66.62
36798;BME280;22748;8.426;99.512;2022-08-01T10:50:19;100289.41;;;29.97;66.67
36798;BME280;22748;8.426;99.512;2022-08-01T10:53:08;100285.50;;;29.93;66.95
36798;BME280;22748;8.426;99.512;2022-08-01T10:55:52;100290.91;;;29.93;66.66
36798;BME280;22748;8.426;99.512;2022-08-01T10:58:25;100283.41;;;29.95;66.78
36798;BME280;22748;8.426;99.512;2022-08-01T11:01:20;100280.13;;;29.93;67.24
36798;BME280;22748;8.426;99.512;2022-08-01T11:04:05;100285.50;;;29.93;67.31
36798;BME280;22748;8.426;99.512;2022-08-01T11:06:54;100288.81;;;29.95;67.08
36798;BME280;22748;8.426;99.512;2022-08-01T11:09:29;100288.00;;;29.94;67.43
36798;BME280;22748;8.426;99.512;2022-08-01T11:12:05;100293.38;;;29.94;67.00
36798;BME280;22748;8.426;99.512;2022-08-01T11:17:37;100291.50;;;29.95;67.22
36798;BME280;22748;8.426;99.512;2022-08-01T11:20:13;100294.19;;;29.95;67.58
36798;BME280;22748;8.426;99.512;2022-08-01T11:31:32;100287.38;;;29.92;67.28
36798;BME280;22748;8.426;99.512;2022-08-01T11:34:03;100288.00;;;29.94;67.29
36798;BME280;22748;8.426;99.512;2022-08-01T11:36:33;100288.81;;;29.95;67.56
36798;BME280;22748;8.426;99.512;2022-08-01T11:39:15;100280.81;;;29.88;67.98
36798;BME280;22748;8.426;99.512;2022-08-01T11:41:48;100295.09;;;29.89;67.68
36798;BME280;22748;8.426;99.512;2022-08-01T11:44:23;100306.06;;;29.87;67.65
36798;BME280;22748;8.426;99.512;2022-08-01T11:46:59;100313.31;;;29.87;67.71
36798;BME280;22748;8.426;99.512;2022-08-01T11:52:19;100330.28;;;29.87;68.06
36798;BME280;22748;8.426;99.512;2022-08-01T11:54:55;100340.84;;;29.89;68.34
36798;BME280;22748;8.426;99.512;2022-08-01T11:57:27;100350.78;;;29.88;68.23
36798;BME280;22748;8.426;99.512;2022-08-01T12:00:00;100355.13;;;29.89;68.33
36798;BME280;22748;8.426;99.512;2022-08-01T12:02:31;100365.06;;;29.89;68.43
36798;BME280;22748;8.426;99.512;2022-08-01T12:05:06;100374.81;;;29.90;68.31
36798;BME280;22748;8.426;99.512;2022-08-01T12:07:38;100384.97;;;29.88;68.21
36798;BME280;22748;8.426;99.512;2022-08-01T12:10:12;100387.66;;;29.88;68.50
36798;BME280;22748;8.426;99.512;2022-08-01T12:12:44;100393.88;;;29.88;68.19
36798;BME280;22748;8.426;99.512;2022-08-01T12:15:18;100397.38;;;29.89;68.43
36798;BME280;22748;8.426;99.512;2022-08-01T12:17:55;100406.88;;;29.91;68.19
36798;BME280;22748;8.426;99.512;2022-08-01T12:20:26;100407.69;;;29.92;68.21
36798;BME280;22748;8.426;99.512;2022-08-01T12:22:59;100414.75;;;29.93;68.35
36798;BME280;22748;8.426;99.512;2022-08-01T12:25:30;100420.94;;;29.93;68.25
36798;BME280;22748;8.426;99.512;2022-08-01T12:28:02;100437.91;;;29.94;68.22
36798;BME280;22748;8.426;99.512;2022-08-01T12:30:36;100438.97;;;29.93;68.05
36798;BME280;22748;8.426;99.512;2022-08-01T12:33:07;100436.06;;;29.94;67.93
36798;BME280;22748;8.426;99.512;2022-08-01T12:35:40;100452.44;;;29.93;68.42
36798;BME280;22748;8.426;99.512;2022-08-01T12:38:17;100444.34;;;29.93;68.42
36798;BME280;22748;8.426;99.512;2022-08-01T12:40:49;100437.91;;;29.94;68.19
36798;BME280;22748;8.426;99.512;2022-08-01T12:43:21;100432.97;;;29.91;68.38
36798;BME280;22748;8.426;99.512;2022-08-01T12:45:57;100445.84;;;29.89;68.07
36798;BME280;22748;8.426;99.512;2022-08-01T12:48:31;100427.22;;;29.87;68.26
36798;BME280;22748;8.426;99.512;2022-08-01T12:51:03;100435.53;;;29.86;68.31
36798;BME280;22748;8.426;99.512;2022-08-01T12:53:37;100437.63;;;29.84;68.33
36798;BME280;22748;8.426;99.512;2022-08-01T12:56:08;100435.53;;;29.86;68.54
36798;BME280;22748;8.426;99.512;2022-08-01T12:58:39;100439.03;;;29.86;68.76
36798;BME280;22748;8.426;99.512;2022-08-01T13:01:13;100435.94;;;29.83;68.72
36798;BME280;22748;8.426;99.512;2022-08-01T13:03:57;100434.31;;;29.82;68.38
36798;BME280;22748;8.426;99.512;2022-08-01T13:06:33;100431.63;;;29.82;68.80
36798;BME280;22748;8.426;99.512;2022-08-01T13:09:09;100435.34;;;29.81;68.52
36798;BME280;22748;8.426;99.512;2022-08-01T13:11:41;100432.66;;;29.81;68.38
36798;BME280;22748;8.426;99.512;2022-08-01T13:14:27;100434.38;;;29.75;68.86
36798;BME280;22748;8.426;99.512;2022-08-01T13:17:00;100443.72;;;29.72;68.62
36798;BME280;22748;8.426;99.512;2022-08-01T13:19:44;100444.13;;;29.69;68.86
36798;BME280;22748;8.426;99.512;2022-08-01T13:22:14;100447.00;;;29.68;69.06
36798;BME280;22748;8.426;99.512;2022-08-01T13:24:44;100452.88;;;29.58;68.79
36798;BME280;22748;8.426;99.512;2022-08-01T13:27:22;100454.81;;;29.51;68.95
36798;BME280;22748;8.426;99.512;2022-08-01T13:30:12;100458.78;;;29.42;69.52
36798;BME280;22748;8.426;99.512;2022-08-01T13:32:57;100471.19;;;29.43;69.36
36798;BME280;22748;8.426;99.512;2022-08-01T13:35:27;100468.19;;;29.26;69.88
36798;BME280;22748;8.426;99.512;2022-08-01T13:37:59;100479.22;;;29.11;70.56